Terminal Aerodrome Forecast
Issued by NWS

Home | Current Version | Previous Version | Text Only | Print | Product List | Glossary On
Versions: 1 2 3 4 5 6 7 8 9 10 11 12 13 14 15 16 17 18 19 20 21 22 23 24 25 26 27 28 29 30 31 32
000
FTUS42 KJAX 022041 AAB
TAFCRG
TAF AMD
KCRG 022041Z 0221/0318 18012KT P6SM VCSH SCT025 BKN040
     FM030200 15010KT P6SM SCT030 SCT250
     FM031000 19010KT 5SM BR BKN015
     FM031600 25010KT P6SM VCTS BKN025CB=

USA.gov is the U.S. government's official web portal to all federal, state and local government web resources and services.